Time;durP1;ratioP1;P1;durP2;ratioP2;P2;SDS_P1;SDS_P2;PMS_P1;PMS_P2;Temp;Humidity;BMP_temperature;BMP_pressure;BME280_temperature;BME280_humidity;BME280_pressure;Samples;Min_cycle;Max_cycle;Signal;HPM_P1;HPM_P2
2023/10/31 00:01:21;;;;;;;11.40;5.37;;;;;;;10.99;100.00;98910.72;6125287;28;20055;-72
2023/10/31 00:04:16;;;;;;;12.95;5.25;;;;;;;11.05;100.00;98909.13;6124153;28;20263;-72
2023/10/31 00:07:12;;;;;;;12.15;5.55;;;;;;;11.12;100.00;98915.28;6127903;28;20121;-73
2023/10/31 00:10:08;;;;;;;11.27;5.43;;;;;;;11.11;100.00;98918.97;6123957;28;20039;-72
2023/10/31 00:13:04;;;;;;;13.38;6.15;;;;;;;11.16;100.00;98922.69;6118804;28;20255;-72
2023/10/31 00:15:59;;;;;;;11.73;5.00;;;;;;;11.18;100.00;98919.84;6131669;28;20391;-73
2023/10/31 00:18:55;;;;;;;12.07;5.57;;;;;;;11.18;100.00;98911.88;6124677;28;20399;-74
2023/10/31 00:21:50;;;;;;;13.13;5.17;;;;;;;11.11;100.00;98903.06;6132785;28;20258;-72
2023/10/31 00:24:45;;;;;;;14.60;6.00;;;;;;;11.18;100.00;98912.69;6123270;28;20285;-70
2023/10/31 00:27:41;;;;;;;13.63;5.57;;;;;;;11.20;100.00;98913.31;6124169;28;20055;-73
2023/10/31 00:30:36;;;;;;;15.03;5.40;;;;;;;11.21;100.00;98903.53;6123567;28;20290;-72
2023/10/31 00:33:31;;;;;;;11.57;5.70;;;;;;;11.21;100.00;98909.66;6123787;28;20031;-75
2023/10/31 00:36:27;;;;;;;10.50;5.50;;;;;;;11.19;100.00;98902.91;6123949;28;20060;-74
2023/10/31 00:39:22;;;;;;;10.00;5.05;;;;;;;11.24;100.00;98909.28;6121241;28;20275;-74
2023/10/31 00:42:17;;;;;;;12.00;5.60;;;;;;;11.17;100.00;98897.00;6131402;28;20064;-73
2023/10/31 00:45:13;;;;;;;11.53;5.73;;;;;;;11.18;100.00;98893.31;6123650;28;20395;-71
2023/10/31 00:48:08;;;;;;;11.47;5.07;;;;;;;11.19;100.00;98905.56;6125151;28;20043;-73
2023/10/31 00:51:04;;;;;;;9.50;4.67;;;;;;;11.22;100.00;98905.97;6130234;28;20025;-71
2023/10/31 00:53:59;;;;;;;12.50;5.55;;;;;;;11.14;100.00;98892.06;6122258;28;20746;-73
2023/10/31 00:56:54;;;;;;;11.70;6.07;;;;;;;11.16;100.00;98900.66;6123674;28;20032;-73
2023/10/31 00:59:50;;;;;;;12.30;5.13;;;;;;;11.20;100.00;98907.19;6129598;28;20464;-74
2023/10/31 01:02:45;;;;;;;12.93;5.60;;;;;;;11.18;100.00;98909.22;6132186;28;20277;-72
2023/10/31 01:05:40;;;;;;;13.73;6.32;;;;;;;11.16;100.00;98900.66;6127666;28;20340;-73
2023/10/31 01:08:36;;;;;;;11.67;6.60;;;;;;;11.22;100.00;98902.53;6125008;28;20111;-71
2023/10/31 01:11:31;;;;;;;13.40;6.27;;;;;;;11.18;100.00;98880.88;6129070;28;20812;-73
2023/10/31 01:14:26;;;;;;;13.90;5.27;;;;;;;11.18;100.00;98888.00;6127476;28;20033;-72
2023/10/31 01:17:22;;;;;;;15.83;6.70;;;;;;;11.23;100.00;98886.41;6131871;28;20052;-72
2023/10/31 01:20:17;;;;;;;16.80;6.53;;;;;;;11.28;100.00;98885.81;6122590;28;20378;-72
2023/10/31 01:23:13;;;;;;;20.45;6.03;;;;;;;11.20;100.00;98872.69;6125887;28;20638;-73
2023/10/31 01:26:09;;;;;;;15.00;5.65;;;;;;;11.22;100.00;98878.66;6129195;28;20033;-73
2023/10/31 01:29:04;;;;;;;11.30;5.37;;;;;;;11.26;100.00;98882.53;6122097;28;20028;-72
2023/10/31 01:31:59;;;;;;;13.77;5.70;;;;;;;11.22;100.00;98868.81;6125503;28;20285;-74
2023/10/31 01:34:55;;;;;;;13.37;5.50;;;;;;;11.26;100.00;98882.53;6127217;28;20032;-72
2023/10/31 01:37:51;;;;;;;13.23;6.20;;;;;;;11.32;100.00;98884.41;6124860;28;20036;-73
2023/10/31 01:40:50;;;;;;;13.07;5.75;;;;;;;11.30;100.00;98884.63;6129052;28;20271;-74
2023/10/31 01:43:46;;;;;;;10.77;5.00;;;;;;;11.33;100.00;98889.50;6121994;28;20124;-73
2023/10/31 01:46:41;;;;;;;10.10;5.15;;;;;;;11.25;100.00;98859.69;6122711;28;20046;-74
2023/10/31 01:49:36;;;;;;;12.93;5.17;;;;;;;11.34;100.00;98861.16;6121849;28;20039;-72
2023/10/31 01:52:32;;;;;;;9.65;4.85;;;;;;;11.24;100.00;98842.94;6124082;28;20032;-73
2023/10/31 01:55:29;;;;;;;11.75;4.85;;;;;;;11.26;100.00;98840.09;6101354;28;20671;-72
2023/10/31 01:58:31;;;;;;;13.52;5.22;;;;;;;11.29;100.00;98858.25;6126293;28;20039;-73
2023/10/31 02:01:27;;;;;;;10.30;4.85;;;;;;;11.31;100.00;98850.91;6130076;28;20024;-72
2023/10/31 02:04:24;;;;;;;12.15;4.95;;;;;;;11.33;100.00;98846.25;6129494;28;20028;-73
2023/10/31 02:07:19;;;;;;;9.57;4.70;;;;;;;11.23;100.00;98821.91;6128142;28;20043;-73
2023/10/31 02:10:14;;;;;;;11.60;4.93;;;;;;;11.32;100.00;98831.34;6121643;28;20029;-74
2023/10/31 02:13:17;;;;;;;11.00;4.30;;;;;;;11.23;100.00;98805.97;6123695;28;20032;-74
2023/10/31 02:16:12;;;;;;;11.07;4.45;;;;;;;11.33;100.00;98825.03;6134713;28;20024;-74
2023/10/31 02:19:08;;;;;;;9.90;4.97;;;;;;;11.31;100.00;98811.13;6128825;28;20052;-72
2023/10/31 02:22:03;;;;;;;10.48;4.32;;;;;;;11.25;100.00;98798.66;6126512;28;20494;-74
2023/10/31 02:24:58;;;;;;;10.20;4.83;;;;;;;11.34;100.00;98821.34;6129064;28;20049;-72
2023/10/31 02:27:54;;;;;;;9.30;4.67;;;;;;;11.23;100.00;98803.31;6121303;28;20024;-73
2023/10/31 02:30:49;;;;;;;10.73;4.00;;;;;;;11.36;100.00;98814.00;6121083;28;20555;-72
2023/10/31 02:33:44;;;;;;;9.33;4.17;;;;;;;11.32;100.00;98794.19;6120655;28;20041;-75
2023/10/31 02:36:40;;;;;;;8.27;4.17;;;;;;;11.50;100.00;98815.69;6126862;28;20032;-72
2023/10/31 02:39:36;;;;;;;10.67;4.00;;;;;;;11.55;100.00;98807.94;6120564;28;20083;-71
2023/10/31 02:42:31;;;;;;;8.20;3.85;;;;;;;11.50;100.00;98786.50;6129436;28;20491;-73
2023/10/31 02:45:26;;;;;;;8.17;4.37;;;;;;;11.58;100.00;98798.75;6121151;28;20442;-73
2023/10/31 02:48:23;;;;;;;9.03;3.80;;;;;;;11.59;100.00;98798.59;6127478;28;20294;-73
2023/10/31 02:51:19;;;;;;;7.45;3.35;;;;;;;11.55;100.00;98788.56;6124474;28;20024;-72
2023/10/31 02:54:14;;;;;;;7.40;3.33;;;;;;;11.57;100.00;98790.00;6121546;28;20211;-74
2023/10/31 02:57:10;;;;;;;6.90;3.33;;;;;;;11.66;100.00;98806.59;6121114;28;20689;-72
2023/10/31 03:00:06;;;;;;;8.45;3.85;;;;;;;11.59;100.00;98784.47;6120857;28;20028;-71
2023/10/31 03:03:01;;;;;;;9.00;4.05;;;;;;;11.63;100.00;98791.03;6120592;28;20458;-72
2023/10/31 03:05:57;;;;;;;6.32;3.67;;;;;;;11.61;100.00;98782.44;6130685;28;20036;-71
2023/10/31 03:08:52;;;;;;;8.53;3.73;;;;;;;11.64;100.00;98787.34;6122168;28;20422;-72
2023/10/31 03:11:48;;;;;;;11.18;3.58;;;;;;;11.57;100.00;98776.72;6121584;28;20407;-75
2023/10/31 03:14:43;;;;;;;6.93;3.93;;;;;;;11.57;100.00;98787.34;6128636;28;20094;-72
2023/10/31 03:17:39;;;;;;;9.60;3.63;;;;;;;11.59;100.00;98787.13;6123158;28;20111;-72
2023/10/31 03:20:34;;;;;;;7.00;3.70;;;;;;;11.59;100.00;98785.31;6127318;28;20075;-73
2023/10/31 03:23:29;;;;;;;7.90;3.97;;;;;;;11.66;100.00;98791.44;6125092;28;20059;-73
2023/10/31 03:26:24;;;;;;;8.67;3.47;;;;;;;11.68;100.00;98783.28;6126430;28;20104;-72
2023/10/31 03:29:20;;;;;;;7.50;3.87;;;;;;;11.68;100.00;98768.19;6132137;28;20028;-77
2023/10/31 03:32:15;;;;;;;7.17;3.40;;;;;;;11.77;100.00;98787.41;6129120;28;20052;-71
2023/10/31 03:35:11;;;;;;;5.53;3.57;;;;;;;11.79;100.00;98780.09;6131173;28;20266;-72
2023/10/31 03:38:06;;;;;;;7.40;3.92;;;;;;;11.79;100.00;98777.44;6126590;28;20832;-71
2023/10/31 03:41:02;;;;;;;8.37;3.80;;;;;;;11.77;100.00;98780.28;6125903;28;20036;-76
2023/10/31 03:43:57;;;;;;;7.45;3.63;;;;;;;11.83;100.00;98792.75;6128939;28;20028;-74
2023/10/31 03:46:52;;;;;;;5.90;3.42;;;;;;;11.82;100.00;98792.97;6124926;28;20392;-72
2023/10/31 03:49:48;;;;;;;7.73;3.33;;;;;;;11.77;100.00;98795.38;6124713;28;20033;-72
2023/10/31 03:52:43;;;;;;;7.33;3.60;;;;;;;11.82;100.00;98812.34;6123744;28;20029;-74
2023/10/31 03:55:38;;;;;;;7.33;2.93;;;;;;;11.78;100.00;98803.16;6131929;28;20041;-74
2023/10/31 03:58:34;;;;;;;5.23;2.87;;;;;;;11.76;100.00;98822.97;6124247;28;20263;-74
2023/10/31 04:01:29;;;;;;;6.10;2.40;;;;;;;11.57;100.00;98808.59;6126623;28;20115;-75
2023/10/31 04:04:24;;;;;;;3.73;2.20;;;;;;;11.42;100.00;98797.28;6124996;28;20270;-74
2023/10/31 04:07:20;;;;;;;3.33;2.03;;;;;;;11.36;100.00;98800.72;6131381;28;20029;-74
2023/10/31 04:10:16;;;;;;;3.30;2.03;;;;;;;11.40;100.00;98815.25;6124200;28;20043;-73
2023/10/31 04:13:11;;;;;;;4.50;2.28;;;;;;;11.26;100.00;98806.41;6126919;28;20111;-73
2023/10/31 04:16:07;;;;;;;4.13;2.40;;;;;;;11.29;100.00;98826.44;6130599;28;20357;-73
2023/10/31 04:19:02;;;;;;;3.50;1.88;;;;;;;11.09;100.00;98820.19;6124555;28;20021;-76
2023/10/31 04:21:57;;;;;;;4.13;2.20;;;;;;;11.15;100.00;98830.03;6127800;28;20493;-74
2023/10/31 04:24:53;;;;;;;3.70;2.10;;;;;;;11.14;100.00;98833.72;6131204;28;20111;-72
2023/10/31 04:27:48;;;;;;;7.07;2.20;;;;;;;11.02;100.00;98829.94;6129812;28;20118;-74
2023/10/31 04:30:43;;;;;;;5.57;2.13;;;;;;;11.02;100.00;98822.00;6115706;28;20479;-75
2023/10/31 04:33:39;;;;;;;4.38;2.30;;;;;;;10.98;100.00;98834.81;6126154;28;20021;-72
2023/10/31 04:36:34;;;;;;;5.87;3.23;;;;;;;11.02;100.00;98844.03;6130463;28;20037;-75
2023/10/31 04:39:30;;;;;;;4.27;2.73;;;;;;;11.03;100.00;98847.50;6132230;28;20278;-73
2023/10/31 04:42:25;;;;;;;5.40;2.67;;;;;;;10.96;100.00;98849.28;6127119;28;20266;-75
2023/10/31 04:45:20;;;;;;;3.58;2.28;;;;;;;10.93;100.00;98839.06;6131871;28;20071;-74
2023/10/31 04:48:16;;;;;;;3.20;1.67;;;;;;;10.95;100.00;98834.41;6126333;28;20047;-73
2023/10/31 04:51:11;;;;;;;2.85;1.50;;;;;;;10.94;100.00;98853.97;6123437;28;20542;-73
2023/10/31 04:54:07;;;;;;;2.70;1.50;;;;;;;10.88;100.00;98844.97;6124348;28;20436;-73
2023/10/31 04:57:03;;;;;;;1.90;1.30;;;;;;;10.92;100.00;98858.66;6123374;28;20028;-76
2023/10/31 04:59:59;;;;;;;2.70;1.60;;;;;;;10.78;100.00;98833.88;6125058;28;20688;-76
2023/10/31 05:02:56;;;;;;;2.30;1.33;;;;;;;10.76;100.00;98846.53;6128198;28;20055;-73
2023/10/31 05:05:51;;;;;;;3.53;1.30;;;;;;;10.80;100.00;98852.22;6128381;28;20031;-75
2023/10/31 05:08:47;;;;;;;2.20;1.20;;;;;;;10.83;100.00;98862.47;6123842;28;20055;-75
2023/10/31 05:11:42;;;;;;;1.77;1.08;;;;;;;10.85;100.00;98876.34;6126169;28;20020;-75
2023/10/31 05:14:38;;;;;;;2.30;1.00;;;;;;;10.80;100.00;98878.75;6130421;28;20039;-75
2023/10/31 05:17:34;;;;;;;1.15;0.77;;;;;;;10.83;100.00;98881.03;6108841;28;20476;-75
2023/10/31 05:20:29;;;;;;;1.63;1.00;;;;;;;10.80;100.00;98873.44;6129001;28;20036;-75
2023/10/31 05:23:24;;;;;;;1.03;0.83;;;;;;;10.75;100.00;98872.22;6132708;28;20106;-74
2023/10/31 05:26:20;;;;;;;0.70;0.57;;;;;;;10.76;100.00;98900.34;6125667;28;20028;-76
2023/10/31 05:29:16;;;;;;;0.82;0.60;;;;;;;10.77;100.00;98890.56;6105033;28;20107;-75
2023/10/31 05:32:11;;;;;;;3.83;0.50;;;;;;;10.75;100.00;98889.94;6129669;28;20023;-75
2023/10/31 05:35:07;;;;;;;1.25;0.40;;;;;;;10.60;100.00;98876.75;6122534;28;20295;-74
2023/10/31 05:38:02;;;;;;;0.85;0.30;;;;;;;10.71;100.00;98912.53;6128459;28;20411;-75
2023/10/31 05:40:57;;;;;;;0.60;0.50;;;;;;;10.59;100.00;98904.28;6121722;28;20037;-74
2023/10/31 05:43:53;;;;;;;2.37;0.30;;;;;;;10.53;100.00;98893.63;6122236;28;20282;-74
2023/10/31 05:46:49;;;;;;;4.37;0.70;;;;;;;10.55;100.00;98913.63;6125664;28;20383;-74
2023/10/31 05:49:44;;;;;;;2.05;0.30;;;;;;;10.56;100.00;98923.22;6121819;28;20274;-74
2023/10/31 05:52:39;;;;;;;0.33;0.20;;;;;;;10.48;100.00;98918.06;6121724;28;20075;-75
2023/10/31 05:55:38;;;;;;;1.03;0.53;;;;;;;10.45;100.00;98928.19;6129502;28;20313;-79
2023/10/31 05:58:34;;;;;;;1.88;0.45;;;;;;;10.38;100.00;98917.53;6122243;28;20051;-73
2023/10/31 06:01:29;;;;;;;1.50;0.30;;;;;;;10.36;100.00;98919.56;6122084;28;20036;-74
2023/10/31 06:04:27;;;;;;;0.50;0.30;;;;;;;10.47;100.00;98937.59;6121125;28;20021;-75
2023/10/31 06:07:23;;;;;;;0.20;0.20;;;;;;;10.50;100.00;98933.75;6121734;28;20052;-74
2023/10/31 06:10:18;;;;;;;3.67;0.40;;;;;;;10.41;100.00;98919.00;6121080;28;20040;-75
2023/10/31 06:13:13;;;;;;;0.50;0.30;;;;;;;10.36;100.00;98932.78;6106857;28;20116;-75
2023/10/31 06:16:09;;;;;;;0.90;0.30;;;;;;;10.39;100.00;98935.06;6129212;28;20291;-75
2023/10/31 06:19:04;;;;;;;1.00;0.35;;;;;;;10.44;100.00;98937.97;6121240;28;20051;-75
2023/10/31 06:21:59;;;;;;;1.60;0.40;;;;;;;10.38;100.00;98933.41;6124390;28;20104;-74
2023/10/31 06:24:55;;;;;;;1.90;0.30;;;;;;;10.39;100.00;98943.03;6121091;28;20024;-75
2023/10/31 06:27:50;;;;;;;1.03;0.30;;;;;;;10.38;100.00;98948.53;6121529;28;20035;-75
2023/10/31 06:30:45;;;;;;;1.38;0.40;;;;;;;10.42;100.00;98958.53;6122665;28;20611;-73
2023/10/31 06:33:41;;;;;;;0.93;0.40;;;;;;;10.35;100.00;98955.03;6128182;28;20032;-74
2023/10/31 06:36:36;;;;;;;0.43;0.40;;;;;;;10.38;100.00;98965.22;6120863;28;20033;-75
2023/10/31 06:39:32;;;;;;;0.83;0.40;;;;;;;10.39;100.00;98971.34;6114559;28;20110;-75
2023/10/31 06:42:27;;;;;;;1.45;0.63;;;;;;;10.29;100.00;98950.47;6120818;28;20035;-75
2023/10/31 06:45:23;;;;;;;1.50;0.40;;;;;;;10.23;100.00;98964.44;6120792;28;20029;-75
2023/10/31 06:48:18;;;;;;;2.22;0.60;;;;;;;10.34;100.00;98974.56;6124229;28;20028;-74
2023/10/31 06:51:14;;;;;;;2.23;0.77;;;;;;;10.21;100.00;98973.59;6120442;28;20464;-75
2023/10/31 06:54:09;;;;;;;1.43;0.63;;;;;;;10.33;100.00;98983.50;6123339;28;20467;-75
2023/10/31 06:57:04;;;;;;;1.67;0.80;;;;;;;10.24;100.00;98983.81;6130795;28;20329;-76
2023/10/31 07:00:00;;;;;;;5.30;1.00;;;;;;;10.17;100.00;98975.78;6128728;28;20020;-76
2023/10/31 07:02:55;;;;;;;1.33;0.70;;;;;;;10.17;100.00;98989.03;6128578;28;20403;-77
2023/10/31 07:05:51;;;;;;;3.13;1.30;;;;;;;10.08;100.00;98968.94;6120647;28;20036;-76
2023/10/31 07:08:46;;;;;;;2.10;0.90;;;;;;;10.11;100.00;98979.97;6123270;28;20025;-76
2023/10/31 07:11:41;;;;;;;2.85;1.20;;;;;;;10.13;100.00;98991.25;6124904;28;20038;-74
2023/10/31 07:14:37;;;;;;;4.73;0.90;;;;;;;10.15;100.00;98986.56;6125015;28;20475;-76
2023/10/31 07:17:32;;;;;;;2.43;1.00;;;;;;;10.07;100.00;98978.72;6126872;28;20383;-74
2023/10/31 07:20:28;;;;;;;2.08;0.77;;;;;;;10.20;100.00;98991.31;6123077;28;20059;-75
2023/10/31 07:23:23;;;;;;;1.33;0.80;;;;;;;10.19;100.00;98994.97;6099973;28;20522;-75
2023/10/31 07:26:18;;;;;;;3.77;1.30;;;;;;;10.13;100.00;98993.91;6119352;28;20027;-75
2023/10/31 07:29:14;;;;;;;2.67;1.33;;;;;;;10.20;100.00;99003.72;6126604;28;20630;-75
2023/10/31 07:32:09;;;;;;;3.57;1.43;;;;;;;10.25;100.00;98990.75;6120717;28;20297;-75
2023/10/31 07:35:05;;;;;;;2.78;1.00;;;;;;;10.58;100.00;99011.31;6102338;28;20028;-75
2023/10/31 07:38:00;;;;;;;3.38;1.30;;;;;;;10.76;100.00;99011.69;6124952;28;20060;-75
2023/10/31 07:40:55;;;;;;;2.33;0.87;;;;;;;10.86;100.00;99007.91;6120414;28;20082;-77
2023/10/31 07:43:51;;;;;;;3.93;1.20;;;;;;;10.87;100.00;99022.81;6123411;28;20020;-73
2023/10/31 07:46:46;;;;;;;2.43;1.50;;;;;;;10.67;100.00;99012.03;6121810;28;20032;-75
2023/10/31 07:49:41;;;;;;;3.90;1.20;;;;;;;10.66;100.00;99032.41;6122405;28;20029;-77
2023/10/31 07:52:37;;;;;;;3.80;1.10;;;;;;;10.61;100.00;99024.19;6118547;28;20082;-75
2023/10/31 07:55:32;;;;;;;3.28;1.13;;;;;;;10.54;100.00;99055.13;6123245;28;20357;-75
2023/10/31 07:58:27;;;;;;;5.23;1.47;;;;;;;10.56;100.00;99058.41;6130353;28;20107;-74
2023/10/31 08:01:23;;;;;;;4.27;1.10;;;;;;;10.34;100.00;99043.44;6120913;28;20028;-76
2023/10/31 08:04:18;;;;;;;2.27;1.13;;;;;;;10.12;100.00;99037.28;6126569;28;20033;-76
2023/10/31 08:07:13;;;;;;;2.90;1.00;;;;;;;10.17;100.00;99076.44;6124386;28;20274;-75
2023/10/31 08:10:09;;;;;;;1.67;0.70;;;;;;;10.03;100.00;99071.94;6130256;28;20293;-76
2023/10/31 08:13:04;;;;;;;3.50;1.30;;;;;;;10.10;100.00;99078.16;6127217;28;20028;-75
2023/10/31 08:16:00;;;;;;;1.90;0.90;;;;;;;10.01;100.00;99073.94;6124620;28;20502;-75
2023/10/31 08:18:55;;;;;;;1.90;1.00;;;;;;;10.10;100.00;99088.75;6130259;28;20267;-75
2023/10/31 08:21:50;;;;;;;2.03;1.20;;;;;;;9.99;100.00;99075.97;6128738;28;20033;-76
2023/10/31 08:24:46;;;;;;;1.00;0.60;;;;;;;9.90;100.00;99062.00;6126988;28;20475;-76
2023/10/31 08:27:41;;;;;;;1.40;0.57;;;;;;;9.89;100.00;99081.50;6109032;28;20056;-75
2023/10/31 08:30:38;;;;;;;0.87;0.60;;;;;;;9.87;100.00;99104.72;6133744;28;20290;-76
2023/10/31 08:33:33;;;;;;;1.50;0.70;;;;;;;9.79;100.00;99088.06;6127545;28;20043;-73
2023/10/31 08:36:29;;;;;;;1.10;0.60;;;;;;;9.80;100.00;99110.91;6131392;28;20036;-75
2023/10/31 08:39:26;;;;;;;1.80;1.15;;;;;;;9.66;100.00;99103.75;6123725;28;20270;-75
2023/10/31 08:42:21;;;;;;;1.38;0.80;;;;;;;9.60;100.00;99097.38;6122564;28;20028;-76
2023/10/31 08:45:16;;;;;;;1.35;0.70;;;;;;;9.72;100.00;99121.56;6129711;28;20039;-76
2023/10/31 08:48:12;;;;;;;1.57;0.60;;;;;;;9.72;100.00;99118.94;6120014;28;20033;-75
2023/10/31 08:51:07;;;;;;;0.87;0.50;;;;;;;9.80;100.00;99134.75;6123197;28;20028;-76
2023/10/31 08:54:03;;;;;;;2.17;0.52;;;;;;;9.87;100.00;99131.19;6126486;28;20297;-75
2023/10/31 08:56:58;;;;;;;1.67;0.60;;;;;;;9.80;100.00;99118.84;6133449;28;20129;-74
2023/10/31 08:59:53;;;;;;;1.60;0.60;;;;;;;9.93;100.00;99129.63;6127190;28;20108;-76
2023/10/31 09:02:48;;;;;;;2.37;0.60;;;;;;;9.97;100.00;99120.34;6118454;28;20020;-76
2023/10/31 09:05:44;;;;;;;1.00;0.47;;;;;;;10.05;100.00;99130.84;6122696;28;20139;-74
2023/10/31 09:08:39;;;;;;;0.65;0.60;;;;;;;10.21;100.00;99130.72;6126804;28;20448;-75
2023/10/31 09:11:35;;;;;;;1.37;0.57;;;;;;;10.33;100.00;99153.06;6125434;28;20471;-74
2023/10/31 09:14:30;;;;;;;0.77;0.23;;;;;;;10.34;100.00;99138.84;6127587;28;20307;-74
2023/10/31 09:17:26;;;;;;;1.40;0.50;;;;;;;10.32;100.00;99145.31;6123826;28;20278;-74
2023/10/31 09:20:21;;;;;;;1.30;0.50;;;;;;;10.43;100.00;99160.75;6127439;28;20020;-75
2023/10/31 09:23:17;;;;;;;0.30;0.30;;;;;;;10.39;100.00;99146.22;6122863;28;20012;-76
2023/10/31 09:26:12;;;;;;;0.43;0.40;;;;;;;10.61;100.00;99159.38;6122700;28;20100;-74
2023/10/31 09:29:07;;;;;;;1.27;0.50;;;;;;;10.79;100.00;99155.53;6122601;28;20036;-75
2023/10/31 09:32:05;;;;;;;0.20;0.20;;;;;;;10.84;100.00;99139.88;6122629;28;20023;-77
2023/10/31 09:35:00;;;;;;;0.40;0.40;;;;;;;11.02;100.00;99175.59;6123489;28;20271;-74
2023/10/31 09:37:56;;;;;;;3.17;0.40;;;;;;;11.25;100.00;99180.75;6120502;28;20048;-75
2023/10/31 09:40:51;;;;;;;0.80;0.30;;;;;;;11.49;100.00;99191.00;6122029;28;20395;-76
2023/10/31 09:43:46;;;;;;;0.37;0.30;;;;;;;11.66;100.00;99188.91;6128817;28;20031;-75
2023/10/31 09:46:41;;;;;;;1.57;0.53;;;;;;;11.80;100.00;99180.06;6128923;28;20258;-76
2023/10/31 09:49:37;;;;;;;0.97;0.40;;;;;;;11.97;100.00;99185.94;6104938;28;20040;-75
2023/10/31 09:52:32;;;;;;;1.52;0.30;;;;;;;11.84;100.00;99195.44;6121685;28;20039;-75
2023/10/31 09:55:28;;;;;;;0.90;0.40;;;;;;;11.71;100.00;99213.91;6104093;28;20029;-76
2023/10/31 09:58:24;;;;;;;1.35;0.40;;;;;;;11.35;100.00;99229.84;6122115;28;20035;-75
2023/10/31 10:01:19;;;;;;;0.52;0.32;;;;;;;10.77;100.00;99222.81;6121851;28;20028;-76
2023/10/31 10:04:17;;;;;;;2.60;0.70;;;;;;;10.55;100.00;99231.66;6125187;28;20029;-78
2023/10/31 10:07:16;;;;;;;0.60;0.30;;;;;;;10.28;100.00;99245.53;6090177;28;20020;-76
2023/10/31 10:10:12;;;;;;;0.98;0.50;;;;;;;10.04;100.00;99237.78;6122642;28;20029;-76
2023/10/31 10:13:08;;;;;;;0.77;0.38;;;;;;;10.00;100.00;99260.34;6127346;28;20083;-74
2023/10/31 10:16:04;;;;;;;0.43;0.30;;;;;;;9.83;100.00;99232.34;6121455;28;20025;-75
2023/10/31 10:19:19;;;;;;;0.73;0.30;;;;;;;10.06;100.00;99270.19;6121434;28;20030;-74
2023/10/31 10:22:15;;;;;;;0.60;0.30;;;;;;;10.12;100.00;99277.44;6125922;28;20466;-75
2023/10/31 10:25:15;;;;;;;1.15;0.60;;;;;;;10.15;100.00;99262.06;6098015;28;20067;-75
2023/10/31 10:28:12;;;;;;;1.20;0.40;;;;;;;10.36;100.00;99258.69;6121481;28;20032;-76
2023/10/31 10:31:08;;;;;;;0.60;0.30;;;;;;;10.52;100.00;99284.22;6120729;28;20031;-75
2023/10/31 10:34:03;;;;;;;1.67;0.40;;;;;;;10.73;100.00;99276.41;6121017;28;20024;-75
2023/10/31 10:36:58;;;;;;;1.65;0.47;;;;;;;10.74;100.00;99281.50;6120932;28;20466;-76
2023/10/31 10:39:57;;;;;;;0.30;0.20;;;;;;;10.93;100.00;99297.88;6123550;28;20078;-76
2023/10/31 10:42:57;;;;;;;0.55;0.45;;;;;;;10.95;100.00;99282.63;6120393;28;20028;-75
2023/10/31 10:45:55;;;;;;;;;;;;;;;11.05;100.00;99297.25;6105944;28;20044;-76
2023/10/31 10:48:57;;;;;;;0.20;0.13;;;;;;;11.05;100.00;99307.84;6117249;28;19909;-75
2023/10/31 10:51:58;;;;;;;0.82;0.28;;;;;;;11.02;100.00;99310.03;6132445;28;20032;-75
2023/10/31 10:55:01;;;;;;;0.17;0.15;;;;;;;10.85;100.00;99316.53;6093740;28;20108;-75
2023/10/31 10:58:34;;;;;;;1.38;0.35;;;;;;;10.49;100.00;99308.44;6126118;28;20038;-75
2023/10/31 11:01:31;;;;;;;0.30;0.20;;;;;;;10.50;100.00;99318.88;6127336;28;20040;-76
2023/10/31 11:04:26;;;;;;;0.55;0.40;;;;;;;10.46;100.00;99290.25;6127730;28;20101;-75
2023/10/31 11:07:23;;;;;;;0.43;0.20;;;;;;;10.66;100.00;99307.28;6104036;28;20032;-77
2023/10/31 11:10:19;;;;;;;1.40;0.20;;;;;;;10.91;100.00;99308.66;6120319;28;20282;-75
2023/10/31 11:13:14;;;;;;;0.45;0.20;;;;;;;11.06;100.00;99298.06;6120089;28;20032;-76
2023/10/31 11:16:25;;;;;;;0.52;0.28;;;;;;;11.21;100.00;99283.78;6103828;28;20771;-77
2023/10/31 11:19:22;;;;;;;0.65;0.30;;;;;;;11.50;100.00;99298.81;6102508;28;20017;-77
2023/10/31 11:22:18;;;;;;;1.25;0.85;;;;;;;11.61;100.00;99310.78;6102446;28;20021;-77
2023/10/31 11:25:15;;;;;;;2.58;0.30;;;;;;;11.70;100.00;99307.03;6102305;28;20021;-76
2023/10/31 11:28:17;;;;;;;0.65;0.40;;;;;;;11.80;100.00;99308.38;6121547;28;20051;-76
2023/10/31 11:31:13;;;;;;;2.00;0.50;;;;;;;11.89;100.00;99304.59;6118135;28;20471;-77
2023/10/31 11:34:08;;;;;;;1.50;0.50;;;;;;;11.80;100.00;99292.44;6102512;28;20021;-75
2023/10/31 11:37:39;;;;;;;3.83;0.57;;;;;;;11.83;100.00;99321.28;6120850;28;20028;-77
2023/10/31 11:40:35;;;;;;;1.40;0.60;;;;;;;11.87;100.00;99308.47;6026147;28;20426;-77
2023/10/31 11:43:39;;;;;;;0.38;0.25;;;;;;;11.92;100.00;99325.47;6136622;28;20036;-76
2023/10/31 11:46:35;;;;;;;0.75;0.47;;;;;;;11.73;100.00;99291.56;6137426;28;20032;-77
2023/10/31 11:49:46;;;;;;;1.77;0.33;;;;;;;11.82;100.00;99311.66;6125419;28;20039;-77
2023/10/31 11:52:42;;;;;;;0.95;0.40;;;;;;;11.78;100.00;99306.91;6124569;28;20033;-77
2023/10/31 11:55:42;;;;;;;0.93;0.43;;;;;;;11.64;100.00;99297.97;6129739;28;20033;-77
2023/10/31 11:58:38;;;;;;;2.10;0.38;;;;;;;11.79;100.00;99329.81;6134322;28;20619;-77
2023/10/31 12:01:33;;;;;;;1.50;0.40;;;;;;;11.65;100.00;99328.81;6126458;28;20063;-76
2023/10/31 12:04:28;;;;;;;1.02;0.55;;;;;;;11.44;100.00;99323.44;6124123;28;20279;-77
2023/10/31 12:07:24;;;;;;;0.70;0.50;;;;;;;11.45;100.00;99335.72;6124498;28;20083;-76
2023/10/31 12:10:24;;;;;;;1.07;0.50;;;;;;;11.38;100.00;99334.81;6124921;28;20078;-77
2023/10/31 12:13:19;;;;;;;1.10;0.68;;;;;;;11.52;100.00;99349.09;6131440;28;20071;-77
2023/10/31 12:16:15;;;;;;;1.57;0.70;;;;;;;11.50;100.00;99311.25;6125741;28;20055;-77
2023/10/31 12:19:11;;;;;;;3.28;0.60;;;;;;;11.67;100.00;99355.19;6105318;28;20270;-75
2023/10/31 12:22:14;;;;;;;2.00;0.70;;;;;;;11.84;100.00;99375.22;6123984;28;20028;-76
2023/10/31 12:25:11;;;;;;;1.35;0.60;;;;;;;11.77;100.00;99337.97;6123880;28;20056;-75
2023/10/31 12:28:06;;;;;;;1.00;0.60;;;;;;;11.85;100.00;99342.34;6124110;28;20036;-75
2023/10/31 12:31:02;;;;;;;1.17;0.70;;;;;;;11.79;100.00;99367.84;6124205;28;20502;-76
2023/10/31 12:33:57;;;;;;;4.03;0.80;;;;;;;11.76;100.00;99364.72;6129145;28;20033;-75
2023/10/31 12:36:53;;;;;;;1.60;0.80;;;;;;;11.63;100.00;99348.59;6108186;28;20050;-75
2023/10/31 12:39:50;;;;;;;4.15;0.95;;;;;;;11.59;100.00;99358.75;6107021;28;20141;-76
2023/10/31 12:42:47;;;;;;;2.28;0.95;;;;;;;11.69;100.00;99363.81;6123540;28;20107;-77
2023/10/31 12:45:42;;;;;;;0.93;0.50;;;;;;;11.75;100.00;99369.19;6123908;28;20056;-75
2023/10/31 12:48:37;;;;;;;1.40;0.80;;;;;;;11.76;100.00;99360.25;6134863;28;20095;-76
2023/10/31 12:51:33;;;;;;;2.90;1.07;;;;;;;11.77;100.00;99369.84;6127293;28;20036;-76
2023/10/31 12:54:35;;;;;;;5.53;0.90;;;;;;;11.81;100.00;99364.97;6127468;28;20373;-76
2023/10/31 12:57:35;;;;;;;2.58;0.90;;;;;;;11.95;100.00;99390.69;6123683;28;20071;-77
2023/10/31 13:00:32;;;;;;;1.02;0.80;;;;;;;11.94;100.00;99376.56;6124441;28;20032;-77
2023/10/31 13:03:27;;;;;;;3.30;0.75;;;;;;;11.96;100.00;99388.88;6126656;28;20028;-77
2023/10/31 13:06:23;;;;;;;1.53;0.90;;;;;;;12.00;100.00;99393.59;6123494;28;20051;-75
2023/10/31 13:09:21;;;;;;;2.30;0.87;;;;;;;11.95;100.00;99377.41;6104851;28;20040;-77
2023/10/31 13:12:16;;;;;;;1.63;0.75;;;;;;;11.93;100.00;99385.53;6127020;28;20286;-76
2023/10/31 13:15:14;;;;;;;4.22;0.90;;;;;;;11.97;100.00;99414.41;6129844;28;20017;-75
2023/10/31 13:18:11;;;;;;;2.80;1.10;;;;;;;11.83;100.00;99408.94;6126509;28;20025;-75
2023/10/31 13:21:06;;;;;;;3.10;1.17;;;;;;;11.83;100.00;99414.25;6133949;28;20063;-76
2023/10/31 13:24:03;;;;;;;5.20;1.30;;;;;;;11.68;100.00;99420.56;6122060;28;20105;-76
2023/10/31 13:26:59;;;;;;;2.25;1.10;;;;;;;11.69;100.00;99448.78;6125675;28;20383;-75
2023/10/31 13:29:55;;;;;;;4.85;1.35;;;;;;;11.55;100.00;99429.16;6122321;28;20041;-76
2023/10/31 13:32:50;;;;;;;4.17;1.23;;;;;;;11.63;100.00;99454.81;6126054;28;20036;-77
2023/10/31 13:36:00;;;;;;;2.57;1.20;;;;;;;11.47;100.00;99437.22;6123127;28;20040;-76
2023/10/31 13:38:56;;;;;;;4.00;1.38;;;;;;;11.46;100.00;99456.81;6087137;28;20437;-77